createdAt,value
2018-09-10T00:01:39.751Z,95368.17
2018-09-10T00:04:08.975Z,95372.81
2018-09-10T00:06:38.230Z,95363.93
2018-09-10T00:09:09.055Z,95371.38
2018-09-10T00:11:39.041Z,95365.46
2018-09-10T00:14:08.139Z,95357.16
2018-09-10T00:16:37.338Z,95357.16
2018-09-10T00:19:06.274Z,95357.66
2018-09-10T00:21:35.329Z,95359.19
2018-09-10T00:24:04.396Z,95355.66
2018-09-10T00:26:33.430Z,95351.90
2018-09-10T00:29:02.483Z,95358.23
2018-09-10T00:31:31.691Z,95360.45
2018-09-10T00:34:00.967Z,95353.23
2018-09-10T00:36:30.174Z,95360.05
2018-09-10T00:38:59.312Z,95360.75
2018-09-10T00:41:28.327Z,95361.81
2018-09-10T00:43:57.371Z,95366.95
2018-09-10T00:46:26.390Z,95365.14
2018-09-10T00:48:55.418Z,95367.66
2018-09-10T00:51:24.254Z,95374.83
2018-09-10T00:53:53.163Z,95378.91
2018-09-10T00:56:22.406Z,95376.28
2018-09-10T00:58:51.559Z,95373.77
2018-09-10T01:01:20.868Z,95369.50
2018-09-10T01:03:50.690Z,95367.66
2018-09-10T01:06:19.581Z,95375.48
2018-09-10T01:08:48.372Z,95376.17
2018-09-10T01:11:17.722Z,95378.54
2018-09-10T01:13:46.767Z,95378.33
2018-09-10T01:16:15.759Z,95381.71
2018-09-10T01:18:45.231Z,95377.70
2018-09-10T01:21:14.142Z,95377.27
2018-09-10T01:23:43.022Z,95371.70
2018-09-10T01:26:12.382Z,95374.10
2018-09-10T01:28:41.343Z,95375.16
2018-09-10T01:31:10.315Z,95376.42
2018-09-10T01:33:44.613Z,95377.92
2018-09-10T01:36:13.734Z,95377.59
2018-09-10T01:38:42.628Z,95378.31
2018-09-10T01:41:12.076Z,95380.25
2018-09-10T01:43:41.333Z,95385.02
2018-09-10T01:46:10.324Z,95375.33
2018-09-10T01:48:40.110Z,95383.96
2018-09-10T01:51:09.175Z,95378.31
2018-09-10T01:53:38.150Z,95359.48
2018-09-10T01:56:07.253Z,95378.81
2018-09-10T01:58:36.134Z,95370.02
2018-09-10T02:01:05.220Z,95383.98
2018-09-10T02:03:34.447Z,95385.47
2018-09-10T02:06:03.458Z,95383.98
2018-09-10T02:08:32.422Z,95389.22
2018-09-10T02:11:01.832Z,95381.75
2018-09-10T02:13:31.023Z,95384.66
2018-09-10T02:16:00.027Z,95384.73
2018-09-10T02:18:28.954Z,95387.30
2018-09-10T02:20:58.006Z,95388.11
2018-09-10T02:23:28.185Z,95390.06
2018-09-10T02:25:57.765Z,95388.27
2018-09-10T02:28:26.736Z,95384.59
2018-09-10T02:30:55.718Z,95390.33
2018-09-10T02:33:24.938Z,95385.06
2018-09-10T02:35:53.934Z,95386.80
2018-09-10T02:38:23.151Z,95388.53
2018-09-10T02:40:52.062Z,95387.36
2018-09-10T02:43:21.113Z,95386.19
2018-09-10T02:45:50.113Z,95381.48
2018-09-10T02:48:19.538Z,95391.16
2018-09-10T02:50:48.524Z,95389.89
2018-09-10T02:53:17.607Z,95397.01
2018-09-10T02:55:47.026Z,95390.59
2018-09-10T02:58:16.120Z,95391.69
2018-09-10T03:00:44.990Z,95392.59
2018-09-10T03:03:14.027Z,95395.16
2018-09-10T03:05:42.802Z,95392.86
2018-09-10T03:08:11.990Z,95385.69
2018-09-10T03:10:41.354Z,95395.83
2018-09-10T03:13:10.383Z,95386.72
2018-09-10T03:15:39.387Z,95391.83
2018-09-10T03:18:08.940Z,95391.22
2018-09-10T03:20:37.866Z,95389.95
2018-09-10T03:23:07.078Z,95393.83
2018-09-10T03:25:36.585Z,95397.72
2018-09-10T03:28:05.506Z,95396.09
2018-09-10T03:30:34.372Z,95396.80
2018-09-10T03:33:03.540Z,95398.85
2018-09-10T03:35:32.351Z,95404.37
2018-09-10T03:38:01.655Z,95405.50
2018-09-10T03:40:30.678Z,95404.58
2018-09-10T03:42:59.760Z,95412.41
2018-09-10T03:45:28.735Z,95407.77
2018-09-10T03:47:58.063Z,95407.61
2018-09-10T03:50:27.340Z,95408.52
2018-09-10T03:52:56.222Z,95403.40
2018-09-10T03:55:25.368Z,95412.45
2018-09-10T03:57:54.336Z,95410.38
2018-09-10T04:00:23.755Z,95406.88
2018-09-10T04:02:53.166Z,95409.69
2018-09-10T04:05:22.240Z,95410.31
2018-09-10T04:07:51.349Z,95411.64
2018-09-10T04:10:20.675Z,95417.23
2018-09-10T04:12:49.752Z,95412.51
2018-09-10T04:15:18.915Z,95408.10
2018-09-10T04:17:48.062Z,95413.02
2018-09-10T04:20:16.922Z,95411.04
2018-09-10T04:22:46.223Z,95413.89
2018-09-10T04:25:15.847Z,95416.39
2018-09-10T04:27:44.933Z,95419.77
2018-09-10T04:30:15.455Z,95415.66
2018-09-10T04:32:44.852Z,95417.09
2018-09-10T04:35:13.915Z,95415.31
2018-09-10T04:37:42.965Z,95421.98
2018-09-10T04:40:12.323Z,95423.17
2018-09-10T04:42:41.552Z,95410.63
2018-09-10T04:45:11.037Z,95420.13
2018-09-10T04:47:40.399Z,95411.19
2018-09-10T04:50:09.558Z,95412.53
2018-09-10T04:52:38.558Z,95413.05
2018-09-10T04:55:07.934Z,95415.04
2018-09-10T04:57:36.936Z,95415.64
2018-09-10T05:00:06.573Z,95413.69
2018-09-10T05:02:36.136Z,95418.33
2018-09-10T05:05:05.174Z,95413.06
2018-09-10T05:07:34.275Z,95424.59
2018-09-10T05:10:03.927Z,95424.47
2018-09-10T05:12:32.981Z,95414.47
2018-09-10T05:15:01.880Z,95418.95
2018-09-10T05:17:31.291Z,95416.09
2018-09-10T05:20:00.449Z,95417.27
2018-09-10T05:22:29.471Z,95419.20
2018-09-10T05:24:59.016Z,95417.47
2018-09-10T05:27:27.858Z,95417.22
2018-09-10T05:29:56.921Z,95416.39
2018-09-10T05:32:26.380Z,95415.86
2018-09-10T05:34:55.466Z,95417.20
2018-09-10T05:37:24.458Z,95411.41
2018-09-10T05:39:53.591Z,95411.22
2018-09-10T05:42:22.657Z,95412.98
2018-09-10T05:44:51.949Z,95408.40
2018-09-10T05:47:21.258Z,95416.60
2018-09-10T05:49:50.147Z,95415.00
2018-09-10T05:52:19.126Z,95408.93
2018-09-10T05:54:48.151Z,95411.45
2018-09-10T05:57:17.216Z,95407.25
2018-09-10T05:59:46.362Z,95410.69
2018-09-10T06:02:15.767Z,95410.86
2018-09-10T06:04:45.019Z,95407.80
2018-09-10T06:07:14.025Z,95410.78
2018-09-10T06:09:43.386Z,95408.28
2018-09-10T06:12:12.595Z,95406.66
2018-09-10T06:14:41.431Z,95418.57
2018-09-10T06:17:10.339Z,95418.81
2018-09-10T06:19:39.603Z,95425.31
2018-09-10T06:22:08.611Z,95421.73
2018-09-10T06:24:38.158Z,95415.81
2018-09-10T06:27:07.232Z,95413.45
2018-09-10T06:29:36.407Z,95418.53
2018-09-10T06:32:05.963Z,95422.03
2018-09-10T06:34:35.007Z,95420.97
2018-09-10T06:37:03.944Z,95409.63
2018-09-10T06:39:32.790Z,95417.70
2018-09-10T06:42:02.077Z,95416.12
2018-09-10T06:44:30.961Z,95416.52
2018-09-10T06:47:00.544Z,95417.70
2018-09-10T06:49:29.591Z,95420.50
2018-09-10T06:51:58.665Z,95414.90
2018-09-10T06:54:27.807Z,95416.89
2018-09-10T06:56:56.767Z,95414.58
2018-09-10T06:59:25.758Z,95416.31
2018-09-10T07:01:55.179Z,95425.83
2018-09-10T07:04:24.584Z,95418.94
2018-09-10T07:06:53.687Z,95430.94
2018-09-10T07:09:22.959Z,95430.41
2018-09-10T07:11:51.979Z,95438.23
2018-09-10T07:14:20.977Z,95437.37
2018-09-10T07:16:50.163Z,95440.59
2018-09-10T07:19:19.244Z,95441.95
2018-09-10T07:21:48.475Z,95436.86
2018-09-10T07:24:17.841Z,95436.92
2018-09-10T07:26:46.869Z,95438.08
2018-09-10T07:29:15.864Z,95443.09
2018-09-10T07:31:45.691Z,95440.52
2018-09-10T07:34:14.689Z,95438.20
2018-09-10T07:36:43.867Z,95436.19
2018-09-10T07:39:13.699Z,95438.62
2018-09-10T07:41:42.800Z,95439.05
2018-09-10T07:44:11.563Z,95431.03
2018-09-10T07:46:41.412Z,95432.61
2018-09-10T07:49:10.472Z,95432.56
2018-09-10T07:51:39.375Z,95431.23
2018-09-10T07:54:08.767Z,95434.52
2018-09-10T07:56:37.884Z,95436.36
2018-09-10T07:59:07.027Z,95434.45
2018-09-10T08:01:36.151Z,95430.47
2018-09-10T08:04:05.549Z,95431.09
2018-09-10T08:06:34.693Z,95429.59
2018-09-10T08:09:04.181Z,95426.89
2018-09-10T08:11:33.170Z,95417.27
2018-09-10T08:14:02.147Z,95424.00
2018-09-10T08:16:31.614Z,95421.58
2018-09-10T08:19:00.551Z,95420.72
2018-09-10T08:21:29.545Z,95418.70
2018-09-10T08:23:59.007Z,95415.42
2018-09-10T08:26:28.315Z,95415.33
2018-09-10T08:28:57.544Z,95411.73
2018-09-10T08:31:26.701Z,95414.20
2018-09-10T08:33:55.969Z,95418.03
2018-09-10T08:36:25.115Z,95420.45
2018-09-10T08:38:54.374Z,95419.68
2018-09-10T08:41:23.535Z,95412.63
2018-09-10T08:43:52.626Z,95406.81
2018-09-10T08:46:22.175Z,95399.92
2018-09-10T08:48:51.435Z,95404.53
2018-09-10T08:51:20.424Z,95406.16
2018-09-10T08:53:49.383Z,95396.17
2018-09-10T08:56:18.699Z,95396.10
2018-09-10T08:58:47.632Z,95395.49
2018-09-10T09:01:16.959Z,95398.45
2018-09-10T09:03:45.830Z,95397.76
2018-09-10T09:06:14.961Z,95399.56
2018-09-10T09:08:44.255Z,95397.09
2018-09-10T09:11:13.542Z,95398.40
2018-09-10T09:13:42.423Z,95394.73
2018-09-10T09:16:11.429Z,95400.47
2018-09-10T09:18:40.437Z,95402.70
2018-09-10T09:21:09.923Z,95398.95
2018-09-10T09:23:38.976Z,95402.27
2018-09-10T09:26:08.053Z,95400.75
2018-09-10T09:28:37.007Z,95409.50
2018-09-10T09:31:06.526Z,95404.55
2018-09-10T09:33:35.515Z,95402.37
2018-09-10T09:36:10.125Z,95391.08
2018-09-10T09:38:44.383Z,95387.23
2018-09-10T09:41:18.628Z,95383.52
2018-09-10T09:43:52.811Z,95391.94
2018-09-10T09:46:21.922Z,95392.42
2018-09-10T09:48:50.917Z,95390.30
2018-09-10T09:51:19.873Z,95386.83
2018-09-10T09:53:49.296Z,95378.64
2018-09-10T09:56:18.559Z,95382.58
2018-09-10T09:58:47.543Z,95392.12
2018-09-10T10:01:24.141Z,95384.11
2018-09-10T10:03:53.411Z,95379.02
2018-09-10T10:06:23.162Z,95384.47
2018-09-10T10:08:52.582Z,95388.59
2018-09-10T10:11:21.845Z,95388.22
2018-09-10T10:13:51.513Z,95380.17
2018-09-10T10:16:20.920Z,95381.25
2018-09-10T10:18:49.770Z,95378.44
2018-09-10T10:21:18.971Z,95372.25
2018-09-10T10:23:48.206Z,95368.25
2018-09-10T10:26:17.339Z,95363.85
2018-09-10T10:28:46.355Z,95370.12
2018-09-10T10:31:15.085Z,95363.58
2018-09-10T10:33:44.443Z,95352.47
2018-09-10T10:36:13.655Z,95336.07
2018-09-10T10:38:43.491Z,95356.06
2018-09-10T10:41:12.582Z,95341.86
2018-09-10T10:43:41.771Z,95354.06
2018-09-10T10:46:11.383Z,95356.47
2018-09-10T10:48:40.380Z,95347.28
2018-09-10T10:51:09.447Z,95350.67
2018-09-10T10:53:38.784Z,95348.15
2018-09-10T10:56:07.868Z,95346.13
2018-09-10T10:58:36.853Z,95342.20
2018-09-10T11:01:06.170Z,95351.52
2018-09-10T11:03:35.252Z,95338.73
2018-09-10T11:06:04.352Z,95348.47
2018-09-10T11:08:33.666Z,95353.61
2018-09-10T11:11:02.725Z,95350.53
2018-09-10T11:13:31.584Z,95345.09
2018-09-10T11:16:00.799Z,95342.59
2018-09-10T11:18:29.739Z,95343.37
2018-09-10T11:20:58.712Z,95337.16
2018-09-10T11:23:28.147Z,95332.50
2018-09-10T11:25:57.440Z,95333.87
2018-09-10T11:28:26.540Z,95324.28
2018-09-10T11:30:55.863Z,95319.37
2018-09-10T11:33:24.835Z,95321.40
2018-09-10T11:35:53.929Z,95307.11
2018-09-10T11:38:23.278Z,95314.80
2018-09-10T11:40:52.499Z,95326.12
2018-09-10T11:43:21.779Z,95321.23
2018-09-10T11:45:51.286Z,95320.31
2018-09-10T11:48:20.406Z,95322.38
2018-09-10T11:50:49.399Z,95315.63
2018-09-10T11:53:18.838Z,95324.81
2018-09-10T11:55:48.003Z,95322.21
2018-09-10T11:58:17.114Z,95319.09
2018-09-10T12:00:46.454Z,95312.91
2018-09-10T12:03:15.619Z,95311.73
2018-09-10T12:05:44.629Z,95303.58
2018-09-10T12:08:14.161Z,95303.80
2018-09-10T12:10:43.358Z,95302.17
2018-09-10T12:13:12.843Z,95310.95
2018-09-10T12:15:42.219Z,95302.70
2018-09-10T12:18:11.150Z,95303.34
2018-09-10T12:20:40.110Z,95297.09
2018-09-10T12:23:09.491Z,95302.89
2018-09-10T12:25:38.530Z,95302.50
2018-09-10T12:28:07.422Z,95297.91
2018-09-10T12:30:36.375Z,95301.45
2018-09-10T12:33:05.478Z,95296.75
2018-09-10T12:35:34.579Z,95299.26
2018-09-10T12:38:04.007Z,95288.55
2018-09-10T12:40:32.899Z,95296.22
2018-09-10T12:43:02.005Z,95290.75
2018-09-10T12:45:31.223Z,95290.69
2018-09-10T12:48:00.408Z,95288.08
2018-09-10T12:50:29.367Z,95289.97
2018-09-10T12:52:58.387Z,95288.26
2018-09-10T12:55:27.461Z,95288.56
2018-09-10T12:57:56.625Z,95274.66
2018-09-10T13:00:26.066Z,95280.69
2018-09-10T13:02:54.927Z,95291.52
2018-09-10T13:05:24.043Z,95281.38
2018-09-10T13:07:53.089Z,95283.76
2018-09-10T13:10:22.047Z,95281.14
2018-09-10T13:12:51.047Z,95273.91
2018-09-10T13:15:20.375Z,95280.67
2018-09-10T13:17:49.348Z,95289.98
2018-09-10T13:20:18.255Z,95279.73
2018-09-10T13:22:47.347Z,95287.16
2018-09-10T13:25:16.615Z,95286.84
2018-09-10T13:27:45.751Z,95283.48
2018-09-10T13:30:14.963Z,95295.84
2018-09-10T13:32:43.828Z,95288.06
2018-09-10T13:35:13.031Z,95279.35
2018-09-10T13:37:43.482Z,95290.12
2018-09-10T13:40:12.527Z,95284.77
2018-09-10T13:42:41.546Z,95287.56
2018-09-10T13:45:10.871Z,95287.45
2018-09-10T13:47:39.950Z,95281.80
2018-09-10T13:50:09.142Z,95282.69
2018-09-10T13:52:38.674Z,95288.95
2018-09-10T13:55:07.902Z,95283.86
2018-09-10T13:57:36.943Z,95292.55
2018-09-10T14:00:06.303Z,95294.95
2018-09-10T14:02:36.190Z,95269.14
2018-09-10T14:05:05.265Z,95292.38
2018-09-10T14:07:34.274Z,95293.57
2018-09-10T14:10:03.448Z,95283.98
2018-09-10T14:12:32.339Z,95276.45
2018-09-10T14:15:02.029Z,95277.03
2018-09-10T14:17:31.066Z,95278.98
2018-09-10T14:20:00.047Z,95281.98
2018-09-10T14:22:29.679Z,95280.03
2018-09-10T14:24:58.763Z,95282.40
2018-09-10T14:27:27.993Z,95278.50
2018-09-10T14:29:57.070Z,95271.75
2018-09-10T14:32:26.034Z,95271.16
2018-09-10T14:34:54.939Z,95277.66
2018-09-10T14:37:24.368Z,95285.27
2018-09-10T14:39:53.547Z,95275.55
2018-09-10T14:42:22.664Z,95277.36
2018-09-10T14:44:52.194Z,95277.98
2018-09-10T14:47:21.326Z,95276.02
2018-09-10T14:49:50.551Z,95275.55
2018-09-10T14:52:19.568Z,95276.25
2018-09-10T14:54:48.644Z,95279.30
2018-09-10T14:57:17.720Z,95281.28
2018-09-10T14:59:47.380Z,95280.59
2018-09-10T15:02:16.560Z,95284.63
2018-09-10T15:04:45.539Z,95281.70
2018-09-10T15:07:15.158Z,95281.88
2018-09-10T15:09:44.254Z,95281.40
2018-09-10T15:12:13.283Z,95283.98
2018-09-10T15:14:42.446Z,95286.08
2018-09-10T15:17:11.527Z,95283.02
2018-09-10T15:19:40.639Z,95283.37
2018-09-10T15:22:09.933Z,95286.63
2018-09-10T15:24:38.889Z,95289.78
2018-09-10T15:27:07.810Z,95286.86
2018-09-10T15:29:37.258Z,95290.87
2018-09-10T15:32:06.508Z,95293.88
2018-09-10T15:34:35.679Z,95288.98
2018-09-10T15:37:05.115Z,95290.76
2018-09-10T15:39:33.898Z,95291.43
2018-09-10T15:42:02.771Z,95297.83
2018-09-10T15:44:32.252Z,95298.07
2018-09-10T15:47:01.204Z,95298.91
2018-09-10T15:49:30.910Z,95305.16
2018-09-10T15:52:00.248Z,95306.03
2018-09-10T15:54:29.476Z,95312.40
2018-09-10T15:56:58.600Z,95311.20
2018-09-10T15:59:28.279Z,95315.61
2018-09-10T16:01:57.338Z,95318.64
2018-09-10T16:04:26.194Z,95312.27
2018-09-10T16:06:55.034Z,95315.30
2018-09-10T16:09:24.105Z,95311.31
2018-09-10T16:11:53.167Z,95319.03
2018-09-10T16:14:22.571Z,95321.04
2018-09-10T16:16:51.573Z,95321.36
2018-09-10T16:19:20.496Z,95326.07
2018-09-10T16:21:49.494Z,95326.89
2018-09-10T16:24:18.563Z,95326.22
2018-09-10T16:26:47.811Z,95327.72
2018-09-10T16:29:17.083Z,95325.98
2018-09-10T16:31:45.899Z,95324.80
2018-09-10T16:34:14.979Z,95328.02
2018-09-10T16:36:43.891Z,95335.27
2018-09-10T16:39:13.294Z,95333.27
2018-09-10T16:41:42.350Z,95330.34
2018-09-10T16:44:11.702Z,95333.19
2018-09-10T16:46:40.735Z,95341.61
2018-09-10T16:49:09.939Z,95343.44
2018-09-10T16:51:39.284Z,95349.20
2018-09-10T16:54:08.473Z,95348.80
2018-09-10T16:56:37.450Z,95342.66
2018-09-10T16:59:06.881Z,95353.55
2018-09-10T17:01:35.761Z,95357.41
2018-09-10T17:04:04.756Z,95355.88
2018-09-10T17:06:34.171Z,95362.35
2018-09-10T17:09:03.207Z,95361.42
2018-09-10T17:11:32.335Z,95367.06
2018-09-10T17:14:01.479Z,95376.20
2018-09-10T17:16:30.610Z,95373.06
2018-09-10T17:18:59.507Z,95375.61
2018-09-10T17:21:28.948Z,95376.45
2018-09-10T17:23:57.984Z,95373.61
2018-09-10T17:26:26.919Z,95389.84
2018-09-10T17:28:56.251Z,95383.95
2018-09-10T17:31:25.427Z,95395.79
2018-09-10T17:33:54.728Z,95392.65
2018-09-10T17:36:24.194Z,95395.69
2018-09-10T17:38:53.111Z,95393.95
2018-09-10T17:41:22.214Z,95394.87
2018-09-10T17:43:51.114Z,95397.75
2018-09-10T17:46:20.036Z,95393.63
2018-09-10T17:48:49.079Z,95405.02
2018-09-10T17:51:18.618Z,95407.74
2018-09-10T17:53:47.575Z,95409.86
2018-09-10T17:56:16.600Z,95409.38
2018-09-10T17:58:46.208Z,95414.13
2018-09-10T18:01:15.324Z,95412.66
2018-09-10T18:03:44.307Z,95416.23
2018-09-10T18:06:13.511Z,95427.25
2018-09-10T18:08:42.236Z,95422.97
2018-09-10T18:11:11.462Z,95426.64
2018-09-10T18:13:41.509Z,95418.80
2018-09-10T18:16:10.495Z,95434.09
2018-09-10T18:18:39.507Z,95433.70
2018-09-10T18:21:08.885Z,95434.87
2018-09-10T18:23:37.911Z,95435.77
2018-09-10T18:26:06.999Z,95438.80
2018-09-10T18:28:36.286Z,95439.59
2018-09-10T18:31:05.287Z,95443.03
2018-09-10T18:33:34.421Z,95439.88
2018-09-10T18:36:03.562Z,95454.84
2018-09-10T18:38:32.455Z,95452.38
2018-09-10T18:41:01.429Z,95450.22
2018-09-10T18:43:31.003Z,95451.64
2018-09-10T18:46:00.037Z,95453.04
2018-09-10T18:48:29.037Z,95449.66
2018-09-10T18:50:58.194Z,95454.44
2018-09-10T18:53:27.239Z,95453.57
2018-09-10T18:55:56.379Z,95451.81
2018-09-10T18:58:25.582Z,95450.58
2018-09-10T19:00:54.668Z,95457.89
2018-09-10T19:03:23.659Z,95447.92
2018-09-10T19:05:52.907Z,95453.11
2018-09-10T19:08:21.999Z,95457.78
2018-09-10T19:10:51.255Z,95456.27
2018-09-10T19:13:20.667Z,95458.31
2018-09-10T19:15:50.016Z,95458.94
2018-09-10T19:18:19.508Z,95462.47
2018-09-10T19:20:48.877Z,95469.55
2018-09-10T19:23:17.951Z,95463.47
2018-09-10T19:25:47.062Z,95468.52
2018-09-10T19:28:16.678Z,95475.37
2018-09-10T19:30:45.623Z,95469.79
2018-09-10T19:33:14.760Z,95470.26
2018-09-10T19:35:43.667Z,95472.41
2018-09-10T19:38:12.914Z,95478.11
2018-09-10T19:40:41.855Z,95482.00
2018-09-10T19:43:11.782Z,95472.53
2018-09-10T19:45:40.729Z,95480.38
2018-09-10T19:48:09.746Z,95484.11
2018-09-10T19:50:38.849Z,95492.70
2018-09-10T19:53:08.587Z,95496.00
2018-09-10T19:55:37.649Z,95491.96
2018-09-10T19:58:07.014Z,95493.19
2018-09-10T20:00:35.939Z,95494.82
2018-09-10T20:03:04.994Z,95496.84
2018-09-10T20:05:34.566Z,95495.86
2018-09-10T20:08:03.486Z,95489.27
2018-09-10T20:10:32.614Z,95486.35
2018-09-10T20:13:02.061Z,95489.75
2018-09-10T20:15:31.255Z,95492.56
2018-09-10T20:18:00.247Z,95491.80
2018-09-10T20:20:29.510Z,95490.77
2018-09-10T20:22:58.522Z,95492.02
2018-09-10T20:25:27.740Z,95498.05
2018-09-10T20:27:56.783Z,95499.20
2018-09-10T20:30:25.858Z,95493.78
2018-09-10T20:32:54.619Z,95498.98
2018-09-10T20:35:23.858Z,95502.01
2018-09-10T20:37:52.887Z,95497.43
2018-09-10T20:40:21.882Z,95495.80
2018-09-10T20:42:51.271Z,95500.97
2018-09-10T20:45:20.387Z,95506.52
2018-09-10T20:47:49.398Z,95499.72
2018-09-10T20:50:18.502Z,95504.13
2018-09-10T20:52:47.497Z,95501.84
2018-09-10T20:55:16.600Z,95503.61
2018-09-10T20:57:45.688Z,95507.88
2018-09-10T21:00:14.744Z,95506.34
2018-09-10T21:02:43.783Z,95507.88
2018-09-10T21:05:13.298Z,95509.88
2018-09-10T21:07:42.249Z,95512.37
2018-09-10T21:10:11.329Z,95511.37
2018-09-10T21:12:40.786Z,95512.86
2018-09-10T21:15:10.036Z,95511.22
2018-09-10T21:17:38.995Z,95519.65
2018-09-10T21:20:08.060Z,95505.23
2018-09-10T21:22:36.812Z,95505.48
2018-09-10T21:25:06.199Z,95506.34
2018-09-10T21:27:35.445Z,95508.25
2018-09-10T21:30:04.795Z,95509.11
2018-09-10T21:32:33.814Z,95507.01
2018-09-10T21:35:03.063Z,95503.84
2018-09-10T21:37:32.030Z,95501.69
2018-09-10T21:40:01.496Z,95504.23
2018-09-10T21:42:30.836Z,95507.12
2018-09-10T21:44:59.774Z,95502.66
2018-09-10T21:47:28.707Z,95507.81
2018-09-10T21:49:58.005Z,95505.65
2018-09-10T21:52:26.879Z,95507.08
2018-09-10T21:54:55.967Z,95508.27
2018-09-10T21:57:25.310Z,95506.91
2018-09-10T21:59:54.470Z,95504.45
2018-09-10T22:02:23.578Z,95506.61
2018-09-10T22:04:53.110Z,95503.66
2018-09-10T22:07:22.406Z,95507.91
2018-09-10T22:09:51.401Z,95507.73
2018-09-10T22:12:21.929Z,95509.83
2018-09-10T22:14:51.032Z,95511.36
2018-09-10T22:17:20.226Z,95506.34
2018-09-10T22:19:49.646Z,95511.61
2018-09-10T22:22:18.706Z,95507.78
2018-09-10T22:24:47.882Z,95509.81
2018-09-10T22:27:17.130Z,95506.06
2018-09-10T22:29:46.107Z,95507.78
2018-09-10T22:32:14.926Z,95503.39
2018-09-10T22:34:44.435Z,95502.11
2018-09-10T22:37:13.423Z,95508.82
2018-09-10T22:39:42.463Z,95509.33
2018-09-10T22:42:11.409Z,95510.03
2018-09-10T22:44:40.695Z,95509.95
2018-09-10T22:47:09.666Z,95505.76
2018-09-10T22:49:39.136Z,95506.13
2018-09-10T22:52:08.271Z,95502.84
2018-09-10T22:54:37.186Z,95503.13
2018-09-10T22:57:06.439Z,95500.36
2018-09-10T22:59:35.654Z,95501.84
2018-09-10T23:02:04.726Z,95507.72
2018-09-10T23:04:34.055Z,95500.24
2018-09-10T23:07:03.254Z,95500.09
2018-09-10T23:09:32.293Z,95506.48
2018-09-10T23:12:01.482Z,95507.94
2018-09-10T23:14:30.432Z,95505.38
2018-09-10T23:16:59.542Z,95504.06
2018-09-10T23:19:28.851Z,95503.91
2018-09-10T23:21:57.767Z,95504.97
2018-09-10T23:24:26.860Z,95497.91
2018-09-10T23:26:56.179Z,95497.69
2018-09-10T23:29:25.231Z,95500.65
2018-09-10T23:31:54.222Z,95500.17
2018-09-10T23:34:23.354Z,95501.84
2018-09-10T23:36:52.123Z,95503.86
2018-09-10T23:39:21.314Z,95496.02
2018-09-10T23:41:50.672Z,95497.14
2018-09-10T23:44:19.946Z,95496.37
2018-09-10T23:46:48.594Z,95495.69
2018-09-10T23:49:17.832Z,95494.98
2018-09-10T23:51:46.929Z,95499.64
2018-09-10T23:54:15.923Z,95497.14
2018-09-10T23:56:44.962Z,95499.14
2018-09-10T23:59:14.137Z,95500.89
